sensor_id;sensor_type;location;lat;lon;timestamp;P1;durP1;ratioP1;P2;durP2;ratioP2
52564;SDS011;38460;53.106;7.004;2024-03-06T00:00:00;13.38;;;8.15;;
52564;SDS011;38460;53.106;7.004;2024-03-06T00:02:26;12.80;;;8.00;;
52564;SDS011;38460;53.106;7.004;2024-03-06T00:04:52;15.38;;;7.70;;
52564;SDS011;38460;53.106;7.004;2024-03-06T00:07:19;13.00;;;7.00;;
52564;SDS011;38460;53.106;7.004;2024-03-06T00:09:45;12.20;;;7.95;;
52564;SDS011;38460;53.106;7.004;2024-03-06T00:12:10;14.18;;;8.25;;
52564;SDS011;38460;53.106;7.004;2024-03-06T00:14:36;12.18;;;7.05;;
52564;SDS011;38460;53.106;7.004;2024-03-06T00:17:03;11.95;;;7.82;;
52564;SDS011;38460;53.106;7.004;2024-03-06T00:19:32;13.07;;;7.60;;
52564;SDS011;38460;53.106;7.004;2024-03-06T00:21:58;14.70;;;7.97;;
52564;SDS011;38460;53.106;7.004;2024-03-06T00:24:24;14.73;;;7.25;;
52564;SDS011;38460;53.106;7.004;2024-03-06T00:26:50;14.73;;;8.77;;
52564;SDS011;38460;53.106;7.004;2024-03-06T00:29:16;13.52;;;8.13;;
52564;SDS011;38460;53.106;7.004;2024-03-06T00:31:42;11.55;;;7.75;;
52564;SDS011;38460;53.106;7.004;2024-03-06T00:34:09;11.70;;;7.03;;
52564;SDS011;38460;53.106;7.004;2024-03-06T00:36:36;12.98;;;7.70;;
52564;SDS011;38460;53.106;7.004;2024-03-06T00:39:03;15.20;;;8.73;;
52564;SDS011;38460;53.106;7.004;2024-03-06T00:41:29;13.10;;;7.50;;
52564;SDS011;38460;53.106;7.004;2024-03-06T00:43:56;13.05;;;7.57;;
52564;SDS011;38460;53.106;7.004;2024-03-06T00:46:24;12.45;;;7.28;;
52564;SDS011;38460;53.106;7.004;2024-03-06T00:48:50;15.35;;;8.75;;
52564;SDS011;38460;53.106;7.004;2024-03-06T00:51:16;13.48;;;7.35;;
52564;SDS011;38460;53.106;7.004;2024-03-06T00:53:42;12.38;;;7.43;;
52564;SDS011;38460;53.106;7.004;2024-03-06T00:56:07;12.18;;;7.25;;
52564;SDS011;38460;53.106;7.004;2024-03-06T00:58:33;13.23;;;7.70;;
52564;SDS011;38460;53.106;7.004;2024-03-06T01:00:59;11.98;;;7.05;;
52564;SDS011;38460;53.106;7.004;2024-03-06T01:03:24;13.32;;;8.10;;
52564;SDS011;38460;53.106;7.004;2024-03-06T01:05:50;13.77;;;8.32;;
52564;SDS011;38460;53.106;7.004;2024-03-06T01:08:21;11.75;;;8.50;;
52564;SDS011;38460;53.106;7.004;2024-03-06T01:10:47;15.13;;;9.02;;
52564;SDS011;38460;53.106;7.004;2024-03-06T01:13:13;12.98;;;7.47;;
52564;SDS011;38460;53.106;7.004;2024-03-06T01:15:39;11.73;;;7.20;;
52564;SDS011;38460;53.106;7.004;2024-03-06T01:18:04;12.02;;;7.88;;
52564;SDS011;38460;53.106;7.004;2024-03-06T01:20:30;14.82;;;8.05;;
52564;SDS011;38460;53.106;7.004;2024-03-06T01:22:57;12.50;;;7.70;;
52564;SDS011;38460;53.106;7.004;2024-03-06T01:25:23;14.18;;;7.75;;
52564;SDS011;38460;53.106;7.004;2024-03-06T01:27:49;14.98;;;8.10;;
52564;SDS011;38460;53.106;7.004;2024-03-06T01:30:15;12.15;;;7.22;;
52564;SDS011;38460;53.106;7.004;2024-03-06T01:32:41;13.10;;;7.63;;
52564;SDS011;38460;53.106;7.004;2024-03-06T01:35:06;11.63;;;7.70;;
52564;SDS011;38460;53.106;7.004;2024-03-06T01:37:32;13.35;;;8.02;;
52564;SDS011;38460;53.106;7.004;2024-03-06T01:39:58;14.05;;;7.90;;
52564;SDS011;38460;53.106;7.004;2024-03-06T01:42:24;11.90;;;8.00;;
52564;SDS011;38460;53.106;7.004;2024-03-06T01:44:50;12.52;;;7.55;;
52564;SDS011;38460;53.106;7.004;2024-03-06T01:47:16;13.85;;;8.60;;
52564;SDS011;38460;53.106;7.004;2024-03-06T01:49:42;12.15;;;7.38;;
52564;SDS011;38460;53.106;7.004;2024-03-06T01:52:09;14.18;;;7.57;;
52564;SDS011;38460;53.106;7.004;2024-03-06T01:54:38;11.57;;;7.90;;
52564;SDS011;38460;53.106;7.004;2024-03-06T01:57:04;11.75;;;7.30;;
52564;SDS011;38460;53.106;7.004;2024-03-06T01:59:32;14.10;;;8.25;;
52564;SDS011;38460;53.106;7.004;2024-03-06T02:01:59;13.80;;;7.70;;
52564;SDS011;38460;53.106;7.004;2024-03-06T02:04:29;11.70;;;7.60;;
52564;SDS011;38460;53.106;7.004;2024-03-06T02:06:55;12.07;;;7.53;;
52564;SDS011;38460;53.106;7.004;2024-03-06T02:09:22;14.65;;;8.57;;
52564;SDS011;38460;53.106;7.004;2024-03-06T02:11:48;14.95;;;8.52;;
52564;SDS011;38460;53.106;7.004;2024-03-06T02:14:15;11.40;;;7.78;;
52564;SDS011;38460;53.106;7.004;2024-03-06T02:16:41;11.35;;;7.40;;
52564;SDS011;38460;53.106;7.004;2024-03-06T02:19:07;10.00;;;7.00;;
52564;SDS011;38460;53.106;7.004;2024-03-06T02:21:33;14.57;;;7.03;;
52564;SDS011;38460;53.106;7.004;2024-03-06T02:23:59;13.48;;;8.88;;
52564;SDS011;38460;53.106;7.004;2024-03-06T02:26:25;13.05;;;8.27;;
52564;SDS011;38460;53.106;7.004;2024-03-06T02:28:52;15.93;;;7.88;;
52564;SDS011;38460;53.106;7.004;2024-03-06T02:31:19;14.48;;;8.85;;
52564;SDS011;38460;53.106;7.004;2024-03-06T02:33:47;11.63;;;8.48;;
52564;SDS011;38460;53.106;7.004;2024-03-06T02:36:13;14.02;;;8.55;;
52564;SDS011;38460;53.106;7.004;2024-03-06T02:38:40;13.85;;;7.82;;
52564;SDS011;38460;53.106;7.004;2024-03-06T02:41:06;13.52;;;7.75;;
52564;SDS011;38460;53.106;7.004;2024-03-06T02:43:33;12.55;;;8.45;;
52564;SDS011;38460;53.106;7.004;2024-03-06T02:45:59;13.38;;;7.95;;
52564;SDS011;38460;53.106;7.004;2024-03-06T02:48:25;12.02;;;7.65;;
52564;SDS011;38460;53.106;7.004;2024-03-06T02:50:51;15.57;;;10.18;;
52564;SDS011;38460;53.106;7.004;2024-03-06T02:53:17;11.85;;;7.63;;
52564;SDS011;38460;53.106;7.004;2024-03-06T02:55:42;13.50;;;8.05;;
52564;SDS011;38460;53.106;7.004;2024-03-06T02:58:08;14.48;;;9.13;;
52564;SDS011;38460;53.106;7.004;2024-03-06T03:00:34;12.02;;;8.30;;
52564;SDS011;38460;53.106;7.004;2024-03-06T03:03:00;12.70;;;8.70;;
52564;SDS011;38460;53.106;7.004;2024-03-06T03:05:25;15.18;;;9.18;;
52564;SDS011;38460;53.106;7.004;2024-03-06T03:07:51;12.50;;;8.05;;
52564;SDS011;38460;53.106;7.004;2024-03-06T03:10:18;12.18;;;8.55;;
52564;SDS011;38460;53.106;7.004;2024-03-06T03:12:44;14.98;;;8.93;;
52564;SDS011;38460;53.106;7.004;2024-03-06T03:15:10;14.30;;;8.65;;
52564;SDS011;38460;53.106;7.004;2024-03-06T03:17:36;15.18;;;8.68;;
52564;SDS011;38460;53.106;7.004;2024-03-06T03:20:02;13.23;;;8.07;;
52564;SDS011;38460;53.106;7.004;2024-03-06T03:22:41;13.70;;;8.65;;
52564;SDS011;38460;53.106;7.004;2024-03-06T03:25:10;16.15;;;8.43;;
52564;SDS011;38460;53.106;7.004;2024-03-06T03:27:37;12.75;;;8.48;;
52564;SDS011;38460;53.106;7.004;2024-03-06T03:30:08;14.52;;;8.48;;
52564;SDS011;38460;53.106;7.004;2024-03-06T03:32:37;14.57;;;9.15;;
52564;SDS011;38460;53.106;7.004;2024-03-06T03:35:04;13.48;;;8.80;;
52564;SDS011;38460;53.106;7.004;2024-03-06T03:37:31;14.30;;;8.93;;
52564;SDS011;38460;53.106;7.004;2024-03-06T03:39:57;13.55;;;9.65;;
52564;SDS011;38460;53.106;7.004;2024-03-06T03:42:23;15.38;;;9.00;;
52564;SDS011;38460;53.106;7.004;2024-03-06T03:44:49;14.70;;;9.23;;
52564;SDS011;38460;53.106;7.004;2024-03-06T03:47:14;16.10;;;9.68;;
52564;SDS011;38460;53.106;7.004;2024-03-06T03:49:40;14.27;;;9.30;;
52564;SDS011;38460;53.106;7.004;2024-03-06T03:52:06;13.10;;;8.85;;
52564;SDS011;38460;53.106;7.004;2024-03-06T03:54:32;15.15;;;8.93;;
52564;SDS011;38460;53.106;7.004;2024-03-06T03:56:57;13.57;;;8.73;;
52564;SDS011;38460;53.106;7.004;2024-03-06T03:59:24;16.58;;;9.15;;
52564;SDS011;38460;53.106;7.004;2024-03-06T04:01:51;13.25;;;9.77;;
52564;SDS011;38460;53.106;7.004;2024-03-06T04:04:17;14.98;;;8.68;;
52564;SDS011;38460;53.106;7.004;2024-03-06T04:06:42;14.25;;;8.80;;
52564;SDS011;38460;53.106;7.004;2024-03-06T04:09:08;16.05;;;9.88;;
52564;SDS011;38460;53.106;7.004;2024-03-06T04:11:38;13.55;;;8.52;;
52564;SDS011;38460;53.106;7.004;2024-03-06T04:14:04;13.40;;;8.48;;
52564;SDS011;38460;53.106;7.004;2024-03-06T04:16:31;18.90;;;9.27;;
52564;SDS011;38460;53.106;7.004;2024-03-06T04:18:58;14.50;;;9.20;;
52564;SDS011;38460;53.106;7.004;2024-03-06T04:21:24;15.38;;;9.25;;
52564;SDS011;38460;53.106;7.004;2024-03-06T04:23:49;14.32;;;9.10;;
52564;SDS011;38460;53.106;7.004;2024-03-06T04:26:15;15.27;;;8.73;;
52564;SDS011;38460;53.106;7.004;2024-03-06T04:28:42;12.77;;;8.68;;
52564;SDS011;38460;53.106;7.004;2024-03-06T04:31:09;15.13;;;9.10;;
52564;SDS011;38460;53.106;7.004;2024-03-06T04:33:35;13.70;;;8.65;;
52564;SDS011;38460;53.106;7.004;2024-03-06T04:36:02;16.60;;;9.88;;
52564;SDS011;38460;53.106;7.004;2024-03-06T04:38:29;15.30;;;9.60;;
52564;SDS011;38460;53.106;7.004;2024-03-06T04:40:54;15.32;;;9.73;;
52564;SDS011;38460;53.106;7.004;2024-03-06T04:43:20;15.35;;;9.57;;
52564;SDS011;38460;53.106;7.004;2024-03-06T04:45:46;15.25;;;8.93;;
52564;SDS011;38460;53.106;7.004;2024-03-06T04:48:12;15.75;;;10.02;;
52564;SDS011;38460;53.106;7.004;2024-03-06T04:50:37;13.93;;;9.45;;
52564;SDS011;38460;53.106;7.004;2024-03-06T04:53:03;15.38;;;10.32;;
52564;SDS011;38460;53.106;7.004;2024-03-06T04:55:29;13.73;;;8.90;;
52564;SDS011;38460;53.106;7.004;2024-03-06T04:57:56;14.88;;;9.48;;
52564;SDS011;38460;53.106;7.004;2024-03-06T05:00:22;15.35;;;9.05;;
52564;SDS011;38460;53.106;7.004;2024-03-06T05:02:48;14.85;;;9.98;;
52564;SDS011;38460;53.106;7.004;2024-03-06T05:05:16;15.02;;;9.23;;
52564;SDS011;38460;53.106;7.004;2024-03-06T05:07:42;14.38;;;9.65;;
52564;SDS011;38460;53.106;7.004;2024-03-06T05:10:08;19.52;;;10.85;;
52564;SDS011;38460;53.106;7.004;2024-03-06T05:12:34;17.45;;;10.32;;
52564;SDS011;38460;53.106;7.004;2024-03-06T05:15:00;18.15;;;10.45;;
52564;SDS011;38460;53.106;7.004;2024-03-06T05:17:26;15.57;;;10.32;;
52564;SDS011;38460;53.106;7.004;2024-03-06T05:19:51;15.52;;;10.23;;
52564;SDS011;38460;53.106;7.004;2024-03-06T05:22:17;14.25;;;10.07;;
52564;SDS011;38460;53.106;7.004;2024-03-06T05:24:43;20.02;;;11.05;;
52564;SDS011;38460;53.106;7.004;2024-03-06T05:27:09;14.63;;;9.90;;
52564;SDS011;38460;53.106;7.004;2024-03-06T05:29:38;19.00;;;10.30;;
52564;SDS011;38460;53.106;7.004;2024-03-06T05:32:04;15.55;;;9.68;;
52564;SDS011;38460;53.106;7.004;2024-03-06T05:34:32;16.25;;;10.48;;
52564;SDS011;38460;53.106;7.004;2024-03-06T05:36:59;18.45;;;10.82;;
52564;SDS011;38460;53.106;7.004;2024-03-06T05:39:24;17.00;;;10.65;;
52564;SDS011;38460;53.106;7.004;2024-03-06T05:41:50;16.70;;;10.40;;
52564;SDS011;38460;53.106;7.004;2024-03-06T05:44:16;18.73;;;10.15;;
52564;SDS011;38460;53.106;7.004;2024-03-06T05:46:42;16.95;;;10.48;;
52564;SDS011;38460;53.106;7.004;2024-03-06T05:49:08;22.95;;;11.75;;
52564;SDS011;38460;53.106;7.004;2024-03-06T05:51:33;15.32;;;10.32;;
52564;SDS011;38460;53.106;7.004;2024-03-06T05:53:59;18.17;;;10.60;;
52564;SDS011;38460;53.106;7.004;2024-03-06T05:56:25;16.17;;;10.85;;
52564;SDS011;38460;53.106;7.004;2024-03-06T05:58:50;18.42;;;10.80;;
52564;SDS011;38460;53.106;7.004;2024-03-06T06:01:16;16.50;;;10.38;;
52564;SDS011;38460;53.106;7.004;2024-03-06T06:03:48;16.73;;;11.30;;
52564;SDS011;38460;53.106;7.004;2024-03-06T06:06:14;16.08;;;9.80;;
52564;SDS011;38460;53.106;7.004;2024-03-06T06:08:41;17.40;;;10.68;;
52564;SDS011;38460;53.106;7.004;2024-03-06T06:11:07;15.10;;;10.23;;
52564;SDS011;38460;53.106;7.004;2024-03-06T06:13:33;17.83;;;10.05;;
52564;SDS011;38460;53.106;7.004;2024-03-06T06:15:58;19.13;;;11.25;;
52564;SDS011;38460;53.106;7.004;2024-03-06T06:18:27;16.60;;;10.88;;
52564;SDS011;38460;53.106;7.004;2024-03-06T06:20:53;19.65;;;10.68;;
52564;SDS011;38460;53.106;7.004;2024-03-06T06:23:19;18.30;;;10.77;;
52564;SDS011;38460;53.106;7.004;2024-03-06T06:25:45;18.10;;;10.95;;
52564;SDS011;38460;53.106;7.004;2024-03-06T06:28:11;15.20;;;9.75;;
52564;SDS011;38460;53.106;7.004;2024-03-06T06:30:37;18.17;;;11.23;;
52564;SDS011;38460;53.106;7.004;2024-03-06T06:33:03;15.98;;;10.40;;
52564;SDS011;38460;53.106;7.004;2024-03-06T06:35:29;16.35;;;10.00;;
52564;SDS011;38460;53.106;7.004;2024-03-06T06:37:55;18.98;;;11.68;;
52564;SDS011;38460;53.106;7.004;2024-03-06T06:40:21;16.67;;;10.07;;
52564;SDS011;38460;53.106;7.004;2024-03-06T06:42:48;16.90;;;11.45;;
52564;SDS011;38460;53.106;7.004;2024-03-06T06:45:18;16.42;;;11.10;;
52564;SDS011;38460;53.106;7.004;2024-03-06T06:47:44;15.68;;;10.68;;
52564;SDS011;38460;53.106;7.004;2024-03-06T06:50:10;16.67;;;10.45;;
52564;SDS011;38460;53.106;7.004;2024-03-06T06:52:39;19.52;;;11.32;;
52564;SDS011;38460;53.106;7.004;2024-03-06T06:55:06;20.27;;;11.27;;
52564;SDS011;38460;53.106;7.004;2024-03-06T06:57:34;18.20;;;11.85;;
52564;SDS011;38460;53.106;7.004;2024-03-06T07:00:01;18.20;;;10.27;;
52564;SDS011;38460;53.106;7.004;2024-03-06T07:02:36;16.02;;;10.68;;
52564;SDS011;38460;53.106;7.004;2024-03-06T07:05:04;18.45;;;11.52;;
52564;SDS011;38460;53.106;7.004;2024-03-06T07:07:30;17.48;;;11.70;;
52564;SDS011;38460;53.106;7.004;2024-03-06T07:09:56;16.63;;;11.40;;
52564;SDS011;38460;53.106;7.004;2024-03-06T07:12:21;15.77;;;10.82;;
52564;SDS011;38460;53.106;7.004;2024-03-06T07:14:47;17.45;;;10.60;;
52564;SDS011;38460;53.106;7.004;2024-03-06T07:17:13;16.92;;;11.45;;
52564;SDS011;38460;53.106;7.004;2024-03-06T07:19:39;18.60;;;11.93;;
52564;SDS011;38460;53.106;7.004;2024-03-06T07:22:04;17.65;;;10.90;;
52564;SDS011;38460;53.106;7.004;2024-03-06T07:24:31;16.15;;;11.60;;
52564;SDS011;38460;53.106;7.004;2024-03-06T07:26:56;18.25;;;11.50;;
52564;SDS011;38460;53.106;7.004;2024-03-06T07:29:22;19.00;;;11.90;;
52564;SDS011;38460;53.106;7.004;2024-03-06T07:31:48;18.17;;;11.93;;
52564;SDS011;38460;53.106;7.004;2024-03-06T07:34:14;21.88;;;12.75;;
52564;SDS011;38460;53.106;7.004;2024-03-06T07:36:40;18.02;;;11.23;;
52564;SDS011;38460;53.106;7.004;2024-03-06T07:39:06;19.40;;;11.20;;
52564;SDS011;38460;53.106;7.004;2024-03-06T07:41:34;22.55;;;13.07;;
52564;SDS011;38460;53.106;7.004;2024-03-06T07:44:00;18.52;;;10.98;;
52564;SDS011;38460;53.106;7.004;2024-03-06T07:46:26;18.38;;;11.98;;
52564;SDS011;38460;53.106;7.004;2024-03-06T07:48:52;17.27;;;11.40;;
52564;SDS011;38460;53.106;7.004;2024-03-06T07:51:18;17.08;;;12.05;;
52564;SDS011;38460;53.106;7.004;2024-03-06T07:53:44;20.23;;;12.70;;
52564;SDS011;38460;53.106;7.004;2024-03-06T07:56:11;15.85;;;10.90;;
52564;SDS011;38460;53.106;7.004;2024-03-06T07:58:37;17.63;;;11.38;;
52564;SDS011;38460;53.106;7.004;2024-03-06T08:01:03;20.95;;;11.98;;
52564;SDS011;38460;53.106;7.004;2024-03-06T08:03:29;21.65;;;13.30;;
52564;SDS011;38460;53.106;7.004;2024-03-06T08:05:54;19.77;;;12.43;;
52564;SDS011;38460;53.106;7.004;2024-03-06T08:08:20;16.70;;;12.55;;
52564;SDS011;38460;53.106;7.004;2024-03-06T08:10:46;19.73;;;12.60;;
52564;SDS011;38460;53.106;7.004;2024-03-06T08:13:13;20.17;;;12.30;;
52564;SDS011;38460;53.106;7.004;2024-03-06T08:15:39;22.08;;;14.52;;
52564;SDS011;38460;53.106;7.004;2024-03-06T08:18:05;20.80;;;14.07;;
52564;SDS011;38460;53.106;7.004;2024-03-06T08:20:31;20.13;;;12.80;;
52564;SDS011;38460;53.106;7.004;2024-03-06T08:22:58;21.52;;;11.95;;
52564;SDS011;38460;53.106;7.004;2024-03-06T08:25:24;19.23;;;12.55;;
52564;SDS011;38460;53.106;7.004;2024-03-06T08:27:49;19.38;;;11.70;;
52564;SDS011;38460;53.106;7.004;2024-03-06T08:30:15;20.00;;;11.85;;
52564;SDS011;38460;53.106;7.004;2024-03-06T08:32:41;19.42;;;12.50;;
52564;SDS011;38460;53.106;7.004;2024-03-06T08:35:09;19.63;;;11.48;;
52564;SDS011;38460;53.106;7.004;2024-03-06T08:37:36;19.35;;;11.70;;
52564;SDS011;38460;53.106;7.004;2024-03-06T08:40:03;16.80;;;11.55;;
52564;SDS011;38460;53.106;7.004;2024-03-06T08:42:29;21.42;;;11.60;;
52564;SDS011;38460;53.106;7.004;2024-03-06T08:44:55;20.40;;;12.23;;
52564;SDS011;38460;53.106;7.004;2024-03-06T08:47:22;18.63;;;11.75;;
52564;SDS011;38460;53.106;7.004;2024-03-06T08:49:47;20.50;;;11.88;;
52564;SDS011;38460;53.106;7.004;2024-03-06T08:52:13;22.30;;;12.13;;
52564;SDS011;38460;53.106;7.004;2024-03-06T08:54:42;20.42;;;12.02;;
52564;SDS011;38460;53.106;7.004;2024-03-06T08:57:09;19.67;;;11.20;;
52564;SDS011;38460;53.106;7.004;2024-03-06T08:59:35;21.58;;;12.20;;
52564;SDS011;38460;53.106;7.004;2024-03-06T09:02:11;20.13;;;12.48;;
52564;SDS011;38460;53.106;7.004;2024-03-06T09:04:45;19.10;;;12.20;;
52564;SDS011;38460;53.106;7.004;2024-03-06T09:07:11;21.02;;;12.85;;
52564;SDS011;38460;53.106;7.004;2024-03-06T09:09:38;19.13;;;12.30;;
52564;SDS011;38460;53.106;7.004;2024-03-06T09:14:33;17.90;;;12.60;;
52564;SDS011;38460;53.106;7.004;2024-03-06T09:17:02;22.38;;;13.40;;
52564;SDS011;38460;53.106;7.004;2024-03-06T09:19:29;16.98;;;11.32;;
52564;SDS011;38460;53.106;7.004;2024-03-06T09:21:55;20.90;;;13.05;;
52564;SDS011;38460;53.106;7.004;2024-03-06T09:24:21;20.60;;;12.00;;
52564;SDS011;38460;53.106;7.004;2024-03-06T09:26:51;25.42;;;14.45;;
52564;SDS011;38460;53.106;7.004;2024-03-06T09:29:18;22.85;;;13.40;;
52564;SDS011;38460;53.106;7.004;2024-03-06T09:31:45;24.63;;;12.90;;
52564;SDS011;38460;53.106;7.004;2024-03-06T09:34:11;22.65;;;14.13;;
52564;SDS011;38460;53.106;7.004;2024-03-06T09:36:40;21.83;;;12.50;;
52564;SDS011;38460;53.106;7.004;2024-03-06T09:39:14;19.80;;;12.77;;
52564;SDS011;38460;53.106;7.004;2024-03-06T09:41:54;19.67;;;12.85;;
52564;SDS011;38460;53.106;7.004;2024-03-06T09:44:21;21.60;;;12.77;;
52564;SDS011;38460;53.106;7.004;2024-03-06T09:46:48;19.73;;;12.25;;
52564;SDS011;38460;53.106;7.004;2024-03-06T09:49:15;21.67;;;12.75;;
52564;SDS011;38460;53.106;7.004;2024-03-06T09:51:45;22.00;;;12.70;;
52564;SDS011;38460;53.106;7.004;2024-03-06T09:54:18;21.15;;;14.13;;
52564;SDS011;38460;53.106;7.004;2024-03-06T09:56:45;27.30;;;13.88;;
52564;SDS011;38460;53.106;7.004;2024-03-06T09:59:13;21.30;;;12.60;;
52564;SDS011;38460;53.106;7.004;2024-03-06T10:02:01;22.73;;;14.77;;
52564;SDS011;38460;53.106;7.004;2024-03-06T10:04:32;21.17;;;13.43;;
52564;SDS011;38460;53.106;7.004;2024-03-06T10:06:59;21.92;;;13.80;;
52564;SDS011;38460;53.106;7.004;2024-03-06T10:09:27;21.98;;;14.00;;
52564;SDS011;38460;53.106;7.004;2024-03-06T10:11:54;21.77;;;13.40;;
52564;SDS011;38460;53.106;7.004;2024-03-06T10:14:23;21.15;;;13.75;;
52564;SDS011;38460;53.106;7.004;2024-03-06T10:19:18;18.88;;;12.85;;
52564;SDS011;38460;53.106;7.004;2024-03-06T10:21:48;24.70;;;13.68;;
52564;SDS011;38460;53.106;7.004;2024-03-06T10:24:20;22.27;;;13.77;;
52564;SDS011;38460;53.106;7.004;2024-03-06T10:26:49;20.25;;;12.65;;
52564;SDS011;38460;53.106;7.004;2024-03-06T10:29:19;22.40;;;14.65;;
52564;SDS011;38460;53.106;7.004;2024-03-06T10:34:19;24.15;;;12.68;;
52564;SDS011;38460;53.106;7.004;2024-03-06T10:36:48;23.45;;;15.05;;
52564;SDS011;38460;53.106;7.004;2024-03-06T10:39:26;22.35;;;13.77;;
52564;SDS011;38460;53.106;7.004;2024-03-06T10:41:52;23.23;;;13.77;;
52564;SDS011;38460;53.106;7.004;2024-03-06T10:44:23;19.60;;;12.68;;
52564;SDS011;38460;53.106;7.004;2024-03-06T10:46:59;24.83;;;13.38;;
52564;SDS011;38460;53.106;7.004;2024-03-06T10:49:29;23.10;;;14.25;;
52564;SDS011;38460;53.106;7.004;2024-03-06T10:51:59;22.92;;;14.00;;
52564;SDS011;38460;53.106;7.004;2024-03-06T10:54:29;20.38;;;12.85;;
52564;SDS011;38460;53.106;7.004;2024-03-06T10:56:57;24.48;;;14.77;;
52564;SDS011;38460;53.106;7.004;2024-03-06T10:59:27;21.92;;;13.02;;
52564;SDS011;38460;53.106;7.004;2024-03-06T11:01:54;20.65;;;13.07;;
52564;SDS011;38460;53.106;7.004;2024-03-06T11:04:22;18.75;;;12.88;;
52564;SDS011;38460;53.106;7.004;2024-03-06T11:06:50;19.33;;;13.55;;
52564;SDS011;38460;53.106;7.004;2024-03-06T11:09:16;17.73;;;13.27;;
52564;SDS011;38460;53.106;7.004;2024-03-06T11:11:49;23.55;;;14.00;;
52564;SDS011;38460;53.106;7.004;2024-03-06T11:14:16;22.10;;;13.90;;
52564;SDS011;38460;53.106;7.004;2024-03-06T11:19:22;21.48;;;13.00;;
52564;SDS011;38460;53.106;7.004;2024-03-06T11:21:47;22.90;;;13.48;;
52564;SDS011;38460;53.106;7.004;2024-03-06T11:24:20;22.58;;;13.52;;
52564;SDS011;38460;53.106;7.004;2024-03-06T11:26:54;20.10;;;13.43;;
52564;SDS011;38460;53.106;7.004;2024-03-06T11:29:27;24.73;;;14.32;;
52564;SDS011;38460;53.106;7.004;2024-03-06T11:32:00;22.63;;;15.05;;
52564;SDS011;38460;53.106;7.004;2024-03-06T11:34:35;23.10;;;14.48;;
52564;SDS011;38460;53.106;7.004;2024-03-06T11:37:07;23.90;;;14.55;;
52564;SDS011;38460;53.106;7.004;2024-03-06T11:39:37;24.33;;;14.90;;
52564;SDS011;38460;53.106;7.004;2024-03-06T11:42:04;22.70;;;14.20;;
52564;SDS011;38460;53.106;7.004;2024-03-06T11:44:33;21.10;;;13.68;;
52564;SDS011;38460;53.106;7.004;2024-03-06T11:47:07;22.05;;;13.75;;
52564;SDS011;38460;53.106;7.004;2024-03-06T11:49:34;24.52;;;16.77;;
52564;SDS011;38460;53.106;7.004;2024-03-06T11:52:02;23.00;;;15.23;;
52564;SDS011;38460;53.106;7.004;2024-03-06T11:54:35;22.90;;;14.90;;
52564;SDS011;38460;53.106;7.004;2024-03-06T11:57:02;23.13;;;14.95;;
52564;SDS011;38460;53.106;7.004;2024-03-06T11:59:36;24.88;;;14.95;;
52564;SDS011;38460;53.106;7.004;2024-03-06T12:02:05;22.85;;;15.25;;
52564;SDS011;38460;53.106;7.004;2024-03-06T12:04:32;25.88;;;15.90;;
52564;SDS011;38460;53.106;7.004;2024-03-06T12:06:59;25.27;;;15.85;;
52564;SDS011;38460;53.106;7.004;2024-03-06T12:09:30;24.40;;;15.20;;
52564;SDS011;38460;53.106;7.004;2024-03-06T12:11:56;22.23;;;14.88;;
52564;SDS011;38460;53.106;7.004;2024-03-06T12:14:22;25.98;;;14.93;;
52564;SDS011;38460;53.106;7.004;2024-03-06T12:16:58;21.73;;;14.90;;
52564;SDS011;38460;53.106;7.004;2024-03-06T12:19:25;22.77;;;15.02;;
52564;SDS011;38460;53.106;7.004;2024-03-06T12:21:53;24.17;;;15.60;;
52564;SDS011;38460;53.106;7.004;2024-03-06T12:24:19;22.13;;;15.18;;
52564;SDS011;38460;53.106;7.004;2024-03-06T12:26:45;27.90;;;15.30;;
52564;SDS011;38460;53.106;7.004;2024-03-06T12:29:16;21.02;;;14.82;;
52564;SDS011;38460;53.106;7.004;2024-03-06T12:31:44;24.90;;;14.23;;
52564;SDS011;38460;53.106;7.004;2024-03-06T12:34:13;23.70;;;16.48;;
52564;SDS011;38460;53.106;7.004;2024-03-06T12:36:42;21.15;;;14.98;;
52564;SDS011;38460;53.106;7.004;2024-03-06T12:39:08;22.45;;;14.82;;
52564;SDS011;38460;53.106;7.004;2024-03-06T12:41:41;24.50;;;15.52;;
52564;SDS011;38460;53.106;7.004;2024-03-06T12:44:07;22.98;;;15.05;;
52564;SDS011;38460;53.106;7.004;2024-03-06T12:46:33;24.95;;;16.52;;
52564;SDS011;38460;53.106;7.004;2024-03-06T12:48:59;21.63;;;14.25;;
52564;SDS011;38460;53.106;7.004;2024-03-06T12:51:25;26.88;;;18.02;;
52564;SDS011;38460;53.106;7.004;2024-03-06T12:53:51;23.08;;;16.25;;
52564;SDS011;38460;53.106;7.004;2024-03-06T12:56:18;23.15;;;15.70;;
52564;SDS011;38460;53.106;7.004;2024-03-06T12:58:44;24.45;;;15.02;;
52564;SDS011;38460;53.106;7.004;2024-03-06T13:01:10;23.23;;;15.68;;
52564;SDS011;38460;53.106;7.004;2024-03-06T13:03:36;21.50;;;14.90;;
52564;SDS011;38460;53.106;7.004;2024-03-06T13:06:02;21.55;;;15.13;;
52564;SDS011;38460;53.106;7.004;2024-03-06T13:08:29;23.70;;;15.63;;
52564;SDS011;38460;53.106;7.004;2024-03-06T13:10:55;27.17;;;16.75;;
52564;SDS011;38460;53.106;7.004;2024-03-06T13:13:21;23.60;;;16.27;;
52564;SDS011;38460;53.106;7.004;2024-03-06T13:15:51;24.42;;;15.25;;
52564;SDS011;38460;53.106;7.004;2024-03-06T13:18:17;20.45;;;15.43;;
52564;SDS011;38460;53.106;7.004;2024-03-06T13:20:43;22.67;;;15.70;;
52564;SDS011;38460;53.106;7.004;2024-03-06T13:23:10;24.02;;;16.08;;
52564;SDS011;38460;53.106;7.004;2024-03-06T13:25:36;19.83;;;14.60;;
52564;SDS011;38460;53.106;7.004;2024-03-06T13:28:02;23.40;;;16.13;;
52564;SDS011;38460;53.106;7.004;2024-03-06T13:30:30;22.33;;;15.18;;
52564;SDS011;38460;53.106;7.004;2024-03-06T13:32:56;23.33;;;16.13;;
52564;SDS011;38460;53.106;7.004;2024-03-06T13:35:21;24.45;;;16.33;;
52564;SDS011;38460;53.106;7.004;2024-03-06T13:37:47;28.00;;;15.68;;
52564;SDS011;38460;53.106;7.004;2024-03-06T13:40:14;25.20;;;16.85;;
52564;SDS011;38460;53.106;7.004;2024-03-06T13:42:40;28.98;;;17.35;;
52564;SDS011;38460;53.106;7.004;2024-03-06T13:45:07;23.50;;;15.88;;
52564;SDS011;38460;53.106;7.004;2024-03-06T13:47:40;21.48;;;14.18;;
52564;SDS011;38460;53.106;7.004;2024-03-06T13:50:07;24.88;;;17.30;;
52564;SDS011;38460;53.106;7.004;2024-03-06T13:52:34;22.45;;;15.60;;
52564;SDS011;38460;53.106;7.004;2024-03-06T13:55:00;22.55;;;15.48;;
52564;SDS011;38460;53.106;7.004;2024-03-06T13:57:32;24.67;;;16.55;;
52564;SDS011;38460;53.106;7.004;2024-03-06T14:00:04;25.10;;;16.42;;
52564;SDS011;38460;53.106;7.004;2024-03-06T14:02:32;24.23;;;15.68;;
52564;SDS011;38460;53.106;7.004;2024-03-06T14:04:57;22.75;;;16.58;;
52564;SDS011;38460;53.106;7.004;2024-03-06T14:07:24;29.42;;;17.45;;
52564;SDS011;38460;53.106;7.004;2024-03-06T14:09:50;27.90;;;16.65;;
52564;SDS011;38460;53.106;7.004;2024-03-06T14:12:16;29.85;;;16.95;;
52564;SDS011;38460;53.106;7.004;2024-03-06T14:14:42;26.25;;;16.05;;
52564;SDS011;38460;53.106;7.004;2024-03-06T14:17:08;25.15;;;16.08;;
52564;SDS011;38460;53.106;7.004;2024-03-06T14:19:34;22.85;;;15.70;;
52564;SDS011;38460;53.106;7.004;2024-03-06T14:21:59;24.60;;;16.48;;
52564;SDS011;38460;53.106;7.004;2024-03-06T14:24:25;28.42;;;16.60;;
52564;SDS011;38460;53.106;7.004;2024-03-06T14:26:51;24.55;;;16.45;;
52564;SDS011;38460;53.106;7.004;2024-03-06T14:29:17;28.13;;;16.25;;
52564;SDS011;38460;53.106;7.004;2024-03-06T14:31:43;25.33;;;16.88;;
52564;SDS011;38460;53.106;7.004;2024-03-06T14:34:09;25.85;;;17.08;;